sensor_id;sensor_type;location;lat;lon;timestamp;P1;durP1;ratioP1;P2;durP2;ratioP2
2712;SDS011;1366;47.988;7.856;2023-04-15T04:02:00;2.63;;;2.40;;
2712;SDS011;1366;47.988;7.856;2023-04-15T04:04:27;2.50;;;2.30;;
2712;SDS011;1366;47.988;7.856;2023-04-15T04:06:53;3.60;;;2.20;;
2712;SDS011;1366;47.988;7.856;2023-04-15T04:09:19;2.13;;;1.93;;
2712;SDS011;1366;47.988;7.856;2023-04-15T04:11:45;1.80;;;1.70;;
2712;SDS011;1366;47.988;7.856;2023-04-15T04:14:11;2.77;;;2.00;;
2712;SDS011;1366;47.988;7.856;2023-04-15T04:16:37;3.03;;;2.00;;
2712;SDS011;1366;47.988;7.856;2023-04-15T04:19:03;2.67;;;2.47;;
2712;SDS011;1366;47.988;7.856;2023-04-15T04:21:29;2.27;;;2.10;;
2712;SDS011;1366;47.988;7.856;2023-04-15T04:23:58;2.40;;;2.20;;
2712;SDS011;1366;47.988;7.856;2023-04-15T04:26:24;2.40;;;1.83;;
2712;SDS011;1366;47.988;7.856;2023-04-15T04:28:50;2.40;;;2.10;;
2712;SDS011;1366;47.988;7.856;2023-04-15T04:31:16;2.50;;;2.30;;
2712;SDS011;1366;47.988;7.856;2023-04-15T04:33:42;2.10;;;2.00;;
2712;SDS011;1366;47.988;7.856;2023-04-15T04:36:08;2.17;;;2.07;;
2712;SDS011;1366;47.988;7.856;2023-04-15T04:38:34;1.80;;;1.70;;
2712;SDS011;1366;47.988;7.856;2023-04-15T04:41:00;2.70;;;2.50;;
2712;SDS011;1366;47.988;7.856;2023-04-15T04:43:26;3.13;;;1.67;;
2712;SDS011;1366;47.988;7.856;2023-04-15T04:45:52;3.50;;;1.90;;
2712;SDS011;1366;47.988;7.856;2023-04-15T04:48:18;2.33;;;2.10;;
2712;SDS011;1366;47.988;7.856;2023-04-15T04:50:44;2.40;;;2.20;;
2712;SDS011;1366;47.988;7.856;2023-04-15T04:53:11;2.57;;;1.90;;
2712;SDS011;1366;47.988;7.856;2023-04-15T04:55:37;3.70;;;2.07;;
2712;SDS011;1366;47.988;7.856;2023-04-15T04:58:03;2.17;;;2.07;;
2712;SDS011;1366;47.988;7.856;2023-04-15T05:00:29;2.30;;;2.10;;
2712;SDS011;1366;47.988;7.856;2023-04-15T05:02:55;3.77;;;2.10;;
2712;SDS011;1366;47.988;7.856;2023-04-15T05:05:21;2.53;;;2.33;;
2712;SDS011;1366;47.988;7.856;2023-04-15T05:07:47;2.10;;;1.90;;
2712;SDS011;1366;47.988;7.856;2023-04-15T05:10:14;5.10;;;2.33;;
2712;SDS011;1366;47.988;7.856;2023-04-15T05:12:42;2.50;;;1.70;;
2712;SDS011;1366;47.988;7.856;2023-04-15T05:15:08;2.10;;;1.90;;
2712;SDS011;1366;47.988;7.856;2023-04-15T05:17:34;2.37;;;2.17;;
2712;SDS011;1366;47.988;7.856;2023-04-15T05:20:01;2.43;;;2.30;;
2712;SDS011;1366;47.988;7.856;2023-04-15T05:22:27;2.27;;;2.07;;
2712;SDS011;1366;47.988;7.856;2023-04-15T05:24:53;2.33;;;2.20;;
2712;SDS011;1366;47.988;7.856;2023-04-15T05:27:19;2.80;;;2.20;;
2712;SDS011;1366;47.988;7.856;2023-04-15T05:29:47;2.00;;;1.90;;
2712;SDS011;1366;47.988;7.856;2023-04-15T05:32:13;5.30;;;2.20;;
2712;SDS011;1366;47.988;7.856;2023-04-15T05:34:39;2.30;;;2.10;;
2712;SDS011;1366;47.988;7.856;2023-04-15T05:37:05;2.47;;;2.27;;
2712;SDS011;1366;47.988;7.856;2023-04-15T05:39:31;1.90;;;1.80;;
2712;SDS011;1366;47.988;7.856;2023-04-15T05:41:58;2.10;;;1.90;;
2712;SDS011;1366;47.988;7.856;2023-04-15T05:44:24;1.83;;;1.73;;
2712;SDS011;1366;47.988;7.856;2023-04-15T05:46:50;2.10;;;1.90;;
2712;SDS011;1366;47.988;7.856;2023-04-15T05:49:17;2.60;;;2.40;;
2712;SDS011;1366;47.988;7.856;2023-04-15T05:51:43;2.57;;;2.37;;
2712;SDS011;1366;47.988;7.856;2023-04-15T05:54:09;2.27;;;2.07;;
2712;SDS011;1366;47.988;7.856;2023-04-15T05:56:35;2.40;;;2.20;;
2712;SDS011;1366;47.988;7.856;2023-04-15T05:59:01;3.37;;;2.40;;
2712;SDS011;1366;47.988;7.856;2023-04-15T06:01:27;2.53;;;2.30;;
2712;SDS011;1366;47.988;7.856;2023-04-15T06:03:54;2.17;;;2.07;;
2712;SDS011;1366;47.988;7.856;2023-04-15T06:06:20;2.33;;;2.10;;
2712;SDS011;1366;47.988;7.856;2023-04-15T06:08:47;2.40;;;2.20;;
2712;SDS011;1366;47.988;7.856;2023-04-15T06:11:13;2.07;;;1.83;;
2712;SDS011;1366;47.988;7.856;2023-04-15T06:13:39;3.50;;;2.33;;
2712;SDS011;1366;47.988;7.856;2023-04-15T06:16:05;2.33;;;2.13;;
2712;SDS011;1366;47.988;7.856;2023-04-15T06:18:32;2.20;;;2.10;;
2712;SDS011;1366;47.988;7.856;2023-04-15T06:20:58;2.80;;;2.60;;
2712;SDS011;1366;47.988;7.856;2023-04-15T06:23:24;3.13;;;2.73;;
2712;SDS011;1366;47.988;7.856;2023-04-15T06:25:50;3.10;;;2.77;;
2712;SDS011;1366;47.988;7.856;2023-04-15T06:28:16;3.10;;;2.80;;
2712;SDS011;1366;47.988;7.856;2023-04-15T06:30:42;3.90;;;3.50;;
2712;SDS011;1366;47.988;7.856;2023-04-15T06:33:08;6.60;;;5.20;;
2712;SDS011;1366;47.988;7.856;2023-04-15T06:35:34;5.90;;;4.97;;
2712;SDS011;1366;47.988;7.856;2023-04-15T06:38:00;5.80;;;4.70;;
2712;SDS011;1366;47.988;7.856;2023-04-15T06:40:26;7.17;;;5.77;;
2712;SDS011;1366;47.988;7.856;2023-04-15T06:42:52;6.83;;;4.57;;
2712;SDS011;1366;47.988;7.856;2023-04-15T06:45:18;3.07;;;2.87;;
2712;SDS011;1366;47.988;7.856;2023-04-15T06:47:45;2.90;;;2.70;;
2712;SDS011;1366;47.988;7.856;2023-04-15T06:50:11;2.23;;;2.03;;
2712;SDS011;1366;47.988;7.856;2023-04-15T06:52:37;2.73;;;2.53;;
2712;SDS011;1366;47.988;7.856;2023-04-15T06:55:03;3.17;;;2.53;;
2712;SDS011;1366;47.988;7.856;2023-04-15T06:57:29;2.97;;;2.20;;
2712;SDS011;1366;47.988;7.856;2023-04-15T06:59:55;2.30;;;2.10;;
2712;SDS011;1366;47.988;7.856;2023-04-15T07:02:22;3.80;;;2.60;;
2712;SDS011;1366;47.988;7.856;2023-04-15T07:04:48;2.53;;;2.27;;
2712;SDS011;1366;47.988;7.856;2023-04-15T07:07:14;2.80;;;2.30;;
2712;SDS011;1366;47.988;7.856;2023-04-15T07:09:41;2.60;;;2.40;;
2712;SDS011;1366;47.988;7.856;2023-04-15T07:12:07;2.90;;;2.30;;
2712;SDS011;1366;47.988;7.856;2023-04-15T07:14:33;3.10;;;2.63;;
2712;SDS011;1366;47.988;7.856;2023-04-15T07:17:00;2.30;;;2.10;;
2712;SDS011;1366;47.988;7.856;2023-04-15T07:19:26;2.80;;;2.60;;
2712;SDS011;1366;47.988;7.856;2023-04-15T07:21:52;2.33;;;2.20;;
2712;SDS011;1366;47.988;7.856;2023-04-15T07:24:18;2.37;;;2.13;;
2712;SDS011;1366;47.988;7.856;2023-04-15T07:26:44;3.90;;;2.77;;
2712;SDS011;1366;47.988;7.856;2023-04-15T07:29:11;2.40;;;2.30;;
2712;SDS011;1366;47.988;7.856;2023-04-15T07:31:37;2.53;;;2.33;;
2712;SDS011;1366;47.988;7.856;2023-04-15T07:34:05;3.60;;;2.60;;
2712;SDS011;1366;47.988;7.856;2023-04-15T07:36:31;2.37;;;2.23;;
2712;SDS011;1366;47.988;7.856;2023-04-15T07:38:58;2.40;;;2.20;;
2712;SDS011;1366;47.988;7.856;2023-04-15T07:41:26;2.67;;;2.47;;
2712;SDS011;1366;47.988;7.856;2023-04-15T07:43:52;2.33;;;2.10;;
2712;SDS011;1366;47.988;7.856;2023-04-15T07:46:18;3.70;;;2.93;;
2712;SDS011;1366;47.988;7.856;2023-04-15T07:48:44;6.00;;;2.60;;
2712;SDS011;1366;47.988;7.856;2023-04-15T07:51:11;2.33;;;2.13;;
2712;SDS011;1366;47.988;7.856;2023-04-15T07:53:37;3.10;;;2.10;;
2712;SDS011;1366;47.988;7.856;2023-04-15T07:56:03;4.43;;;2.37;;
2712;SDS011;1366;47.988;7.856;2023-04-15T07:58:29;2.40;;;2.20;;
2712;SDS011;1366;47.988;7.856;2023-04-15T08:00:55;2.30;;;2.20;;
2712;SDS011;1366;47.988;7.856;2023-04-15T08:03:21;1.90;;;1.80;;
2712;SDS011;1366;47.988;7.856;2023-04-15T08:05:47;2.23;;;2.13;;
2712;SDS011;1366;47.988;7.856;2023-04-15T08:08:14;3.80;;;2.70;;
2712;SDS011;1366;47.988;7.856;2023-04-15T08:10:40;3.43;;;2.20;;
2712;SDS011;1366;47.988;7.856;2023-04-15T08:13:06;2.60;;;2.40;;
2712;SDS011;1366;47.988;7.856;2023-04-15T08:15:32;3.27;;;2.33;;
2712;SDS011;1366;47.988;7.856;2023-04-15T08:17:58;3.00;;;2.80;;
2712;SDS011;1366;47.988;7.856;2023-04-15T08:20:25;2.77;;;2.10;;
2712;SDS011;1366;47.988;7.856;2023-04-15T08:22:51;2.63;;;2.43;;
2712;SDS011;1366;47.988;7.856;2023-04-15T08:25:17;2.60;;;2.30;;
2712;SDS011;1366;47.988;7.856;2023-04-15T08:27:44;2.40;;;2.27;;
2712;SDS011;1366;47.988;7.856;2023-04-15T08:30:10;3.83;;;2.67;;
2712;SDS011;1366;47.988;7.856;2023-04-15T08:32:37;3.80;;;2.70;;
2712;SDS011;1366;47.988;7.856;2023-04-15T08:35:03;3.40;;;2.60;;
2712;SDS011;1366;47.988;7.856;2023-04-15T08:37:29;3.53;;;3.10;;
2712;SDS011;1366;47.988;7.856;2023-04-15T08:39:55;2.70;;;2.50;;
2712;SDS011;1366;47.988;7.856;2023-04-15T08:42:31;3.00;;;2.80;;
2712;SDS011;1366;47.988;7.856;2023-04-15T08:44:58;3.37;;;2.93;;
2712;SDS011;1366;47.988;7.856;2023-04-15T08:47:25;2.60;;;2.40;;
2712;SDS011;1366;47.988;7.856;2023-04-15T08:49:55;2.83;;;2.63;;
2712;SDS011;1366;47.988;7.856;2023-04-15T08:52:23;2.57;;;2.37;;
2712;SDS011;1366;47.988;7.856;2023-04-15T08:54:50;2.40;;;2.20;;
2712;SDS011;1366;47.988;7.856;2023-04-15T08:57:17;2.40;;;2.20;;
2712;SDS011;1366;47.988;7.856;2023-04-15T08:59:43;2.70;;;2.20;;
2712;SDS011;1366;47.988;7.856;2023-04-15T09:02:10;2.40;;;2.20;;
2712;SDS011;1366;47.988;7.856;2023-04-15T09:04:36;2.30;;;2.17;;
2712;SDS011;1366;47.988;7.856;2023-04-15T09:07:02;2.43;;;2.20;;
2712;SDS011;1366;47.988;7.856;2023-04-15T09:09:28;3.00;;;2.27;;
2712;SDS011;1366;47.988;7.856;2023-04-15T09:11:55;2.23;;;2.03;;
2712;SDS011;1366;47.988;7.856;2023-04-15T09:14:21;2.87;;;2.23;;
2712;SDS011;1366;47.988;7.856;2023-04-15T09:19:22;2.53;;;2.17;;
2712;SDS011;1366;47.988;7.856;2023-04-15T09:21:50;2.77;;;2.53;;
2712;SDS011;1366;47.988;7.856;2023-04-15T09:24:17;2.73;;;2.13;;
2712;SDS011;1366;47.988;7.856;2023-04-15T09:26:43;2.20;;;2.10;;
2712;SDS011;1366;47.988;7.856;2023-04-15T09:29:10;3.00;;;2.80;;
2712;SDS011;1366;47.988;7.856;2023-04-15T09:31:39;1.97;;;1.80;;
2712;SDS011;1366;47.988;7.856;2023-04-15T09:34:05;2.43;;;2.23;;
2712;SDS011;1366;47.988;7.856;2023-04-15T09:36:51;2.47;;;2.30;;
2712;SDS011;1366;47.988;7.856;2023-04-15T09:39:17;2.40;;;2.20;;
2712;SDS011;1366;47.988;7.856;2023-04-15T09:41:43;2.53;;;2.33;;
2712;SDS011;1366;47.988;7.856;2023-04-15T09:44:25;2.23;;;2.13;;
2712;SDS011;1366;47.988;7.856;2023-04-15T09:46:51;2.20;;;2.03;;
2712;SDS011;1366;47.988;7.856;2023-04-15T09:49:17;2.30;;;2.10;;
2712;SDS011;1366;47.988;7.856;2023-04-15T09:51:44;2.77;;;2.57;;
2712;SDS011;1366;47.988;7.856;2023-04-15T09:54:12;2.93;;;2.30;;
2712;SDS011;1366;47.988;7.856;2023-04-15T09:56:38;2.43;;;2.23;;
2712;SDS011;1366;47.988;7.856;2023-04-15T09:59:07;2.33;;;2.20;;
2712;SDS011;1366;47.988;7.856;2023-04-15T10:01:33;2.50;;;2.30;;
2712;SDS011;1366;47.988;7.856;2023-04-15T10:04:03;2.73;;;2.40;;
2712;SDS011;1366;47.988;7.856;2023-04-15T10:06:29;4.07;;;2.20;;
2712;SDS011;1366;47.988;7.856;2023-04-15T10:08:56;2.53;;;2.30;;
2712;SDS011;1366;47.988;7.856;2023-04-15T10:11:22;3.27;;;3.03;;
2712;SDS011;1366;47.988;7.856;2023-04-15T10:13:49;4.63;;;2.60;;
2712;SDS011;1366;47.988;7.856;2023-04-15T10:16:17;3.67;;;2.33;;
2712;SDS011;1366;47.988;7.856;2023-04-15T10:18:45;3.20;;;2.77;;
2712;SDS011;1366;47.988;7.856;2023-04-15T10:21:12;2.70;;;2.50;;
2712;SDS011;1366;47.988;7.856;2023-04-15T10:23:42;2.80;;;2.37;;
2712;SDS011;1366;47.988;7.856;2023-04-15T10:26:08;2.30;;;2.10;;
2712;SDS011;1366;47.988;7.856;2023-04-15T10:28:36;2.50;;;2.30;;
2712;SDS011;1366;47.988;7.856;2023-04-15T10:31:02;2.50;;;2.30;;
2712;SDS011;1366;47.988;7.856;2023-04-15T10:33:29;2.50;;;2.30;;
2712;SDS011;1366;47.988;7.856;2023-04-15T10:35:55;3.30;;;2.40;;
2712;SDS011;1366;47.988;7.856;2023-04-15T10:38:38;2.63;;;2.50;;
2712;SDS011;1366;47.988;7.856;2023-04-15T10:41:12;2.83;;;2.13;;
2712;SDS011;1366;47.988;7.856;2023-04-15T10:43:39;3.10;;;2.50;;
2712;SDS011;1366;47.988;7.856;2023-04-15T10:46:10;2.70;;;2.50;;
2712;SDS011;1366;47.988;7.856;2023-04-15T10:48:36;3.20;;;2.60;;
2712;SDS011;1366;47.988;7.856;2023-04-15T10:51:02;2.80;;;2.60;;
2712;SDS011;1366;47.988;7.856;2023-04-15T10:53:29;3.30;;;2.97;;
2712;SDS011;1366;47.988;7.856;2023-04-15T10:55:56;3.23;;;2.53;;
2712;SDS011;1366;47.988;7.856;2023-04-15T10:58:22;2.37;;;2.27;;
2712;SDS011;1366;47.988;7.856;2023-04-15T11:00:49;7.40;;;3.97;;
2712;SDS011;1366;47.988;7.856;2023-04-15T11:03:30;9.93;;;5.07;;
2712;SDS011;1366;47.988;7.856;2023-04-15T11:05:58;3.77;;;3.37;;
2712;SDS011;1366;47.988;7.856;2023-04-15T11:11:10;3.07;;;2.70;;
2712;SDS011;1366;47.988;7.856;2023-04-15T11:13:36;3.20;;;2.97;;
2712;SDS011;1366;47.988;7.856;2023-04-15T11:16:12;2.60;;;2.40;;
2712;SDS011;1366;47.988;7.856;2023-04-15T11:18:38;3.70;;;3.27;;
2712;SDS011;1366;47.988;7.856;2023-04-15T11:21:05;2.60;;;2.40;;
2712;SDS011;1366;47.988;7.856;2023-04-15T11:25:58;3.33;;;2.83;;
2712;SDS011;1366;47.988;7.856;2023-04-15T11:28:27;2.87;;;2.67;;
2712;SDS011;1366;47.988;7.856;2023-04-15T11:30:54;3.33;;;3.03;;
2712;SDS011;1366;47.988;7.856;2023-04-15T11:33:20;3.03;;;2.60;;
2712;SDS011;1366;47.988;7.856;2023-04-15T11:35:46;3.20;;;3.00;;
2712;SDS011;1366;47.988;7.856;2023-04-15T11:38:13;3.23;;;3.03;;
2712;SDS011;1366;47.988;7.856;2023-04-15T11:40:39;3.20;;;2.90;;
2712;SDS011;1366;47.988;7.856;2023-04-15T11:43:06;3.00;;;2.80;;
2712;SDS011;1366;47.988;7.856;2023-04-15T11:45:33;4.03;;;3.57;;
2712;SDS011;1366;47.988;7.856;2023-04-15T11:48:04;2.90;;;2.70;;
2712;SDS011;1366;47.988;7.856;2023-04-15T11:50:30;4.80;;;3.33;;
2712;SDS011;1366;47.988;7.856;2023-04-15T11:52:58;3.63;;;3.27;;
2712;SDS011;1366;47.988;7.856;2023-04-15T11:55:24;4.20;;;3.03;;
2712;SDS011;1366;47.988;7.856;2023-04-15T12:00:35;3.20;;;2.90;;
2712;SDS011;1366;47.988;7.856;2023-04-15T12:03:16;4.30;;;3.37;;
2712;SDS011;1366;47.988;7.856;2023-04-15T12:11:13;4.30;;;3.00;;
2712;SDS011;1366;47.988;7.856;2023-04-15T12:13:42;3.43;;;3.13;;
2712;SDS011;1366;47.988;7.856;2023-04-15T12:16:08;4.67;;;3.00;;
2712;SDS011;1366;47.988;7.856;2023-04-15T12:18:38;3.40;;;3.10;;
2712;SDS011;1366;47.988;7.856;2023-04-15T12:21:10;3.67;;;3.30;;
2712;SDS011;1366;47.988;7.856;2023-04-15T12:23:37;3.70;;;3.40;;
2712;SDS011;1366;47.988;7.856;2023-04-15T12:26:04;4.23;;;3.50;;
2712;SDS011;1366;47.988;7.856;2023-04-15T12:28:33;5.40;;;4.67;;
2712;SDS011;1366;47.988;7.856;2023-04-15T12:31:05;3.37;;;3.07;;
2712;SDS011;1366;47.988;7.856;2023-04-15T12:33:33;4.20;;;3.80;;
2712;SDS011;1366;47.988;7.856;2023-04-15T12:35:59;3.90;;;3.20;;
2712;SDS011;1366;47.988;7.856;2023-04-15T12:38:25;6.63;;;3.40;;
2712;SDS011;1366;47.988;7.856;2023-04-15T12:40:51;3.90;;;3.50;;
2712;SDS011;1366;47.988;7.856;2023-04-15T12:43:17;3.70;;;3.40;;
2712;SDS011;1366;47.988;7.856;2023-04-15T12:45:43;3.50;;;3.00;;
2712;SDS011;1366;47.988;7.856;2023-04-15T12:48:09;4.47;;;3.50;;
2712;SDS011;1366;47.988;7.856;2023-04-15T12:50:35;3.60;;;3.33;;
2712;SDS011;1366;47.988;7.856;2023-04-15T12:53:01;4.03;;;3.50;;
2712;SDS011;1366;47.988;7.856;2023-04-15T12:55:28;3.40;;;3.20;;
2712;SDS011;1366;47.988;7.856;2023-04-15T12:57:55;3.73;;;3.43;;
2712;SDS011;1366;47.988;7.856;2023-04-15T13:00:21;7.10;;;3.97;;
2712;SDS011;1366;47.988;7.856;2023-04-15T13:02:47;4.20;;;3.80;;
2712;SDS011;1366;47.988;7.856;2023-04-15T13:05:14;4.07;;;3.77;;
2712;SDS011;1366;47.988;7.856;2023-04-15T13:07:41;3.17;;;2.93;;
2712;SDS011;1366;47.988;7.856;2023-04-15T13:10:07;3.90;;;2.70;;
2712;SDS011;1366;47.988;7.856;2023-04-15T13:12:33;4.33;;;3.03;;
2712;SDS011;1366;47.988;7.856;2023-04-15T13:15:02;4.70;;;3.20;;
2712;SDS011;1366;47.988;7.856;2023-04-15T13:17:29;3.10;;;2.90;;
2712;SDS011;1366;47.988;7.856;2023-04-15T13:19:55;2.93;;;2.73;;
2712;SDS011;1366;47.988;7.856;2023-04-15T13:22:21;3.67;;;3.30;;
2712;SDS011;1366;47.988;7.856;2023-04-15T13:24:47;3.43;;;2.70;;
2712;SDS011;1366;47.988;7.856;2023-04-15T13:27:13;2.87;;;2.67;;
2712;SDS011;1366;47.988;7.856;2023-04-15T13:29:39;3.13;;;2.83;;
2712;SDS011;1366;47.988;7.856;2023-04-15T13:32:06;2.27;;;2.17;;
2712;SDS011;1366;47.988;7.856;2023-04-15T13:34:32;3.20;;;2.80;;
2712;SDS011;1366;47.988;7.856;2023-04-15T13:36:58;3.23;;;2.97;;
2712;SDS011;1366;47.988;7.856;2023-04-15T13:39:30;3.63;;;3.20;;
2712;SDS011;1366;47.988;7.856;2023-04-15T13:41:56;3.10;;;2.80;;
2712;SDS011;1366;47.988;7.856;2023-04-15T13:44:22;4.10;;;2.87;;
2712;SDS011;1366;47.988;7.856;2023-04-15T13:46:48;5.33;;;2.70;;
2712;SDS011;1366;47.988;7.856;2023-04-15T13:49:14;3.60;;;2.60;;
2712;SDS011;1366;47.988;7.856;2023-04-15T13:51:40;4.03;;;2.60;;
2712;SDS011;1366;47.988;7.856;2023-04-15T13:54:06;5.00;;;2.80;;
2712;SDS011;1366;47.988;7.856;2023-04-15T13:56:33;3.93;;;3.10;;
2712;SDS011;1366;47.988;7.856;2023-04-15T13:58:59;5.30;;;3.40;;
2712;SDS011;1366;47.988;7.856;2023-04-15T14:01:26;4.10;;;3.50;;
2712;SDS011;1366;47.988;7.856;2023-04-15T14:03:52;4.83;;;3.50;;
2712;SDS011;1366;47.988;7.856;2023-04-15T14:06:18;3.97;;;3.37;;
2712;SDS011;1366;47.988;7.856;2023-04-15T14:08:44;5.80;;;3.33;;
2712;SDS011;1366;47.988;7.856;2023-04-15T14:11:11;3.57;;;3.27;;
2712;SDS011;1366;47.988;7.856;2023-04-15T14:13:37;4.07;;;2.83;;
2712;SDS011;1366;47.988;7.856;2023-04-15T14:16:03;3.13;;;2.83;;
2712;SDS011;1366;47.988;7.856;2023-04-15T14:18:29;4.13;;;3.70;;
2712;SDS011;1366;47.988;7.856;2023-04-15T14:20:55;4.50;;;2.90;;
2712;SDS011;1366;47.988;7.856;2023-04-15T14:23:22;3.33;;;3.13;;
2712;SDS011;1366;47.988;7.856;2023-04-15T14:25:49;3.23;;;2.97;;
2712;SDS011;1366;47.988;7.856;2023-04-15T14:28:15;4.43;;;2.60;;
2712;SDS011;1366;47.988;7.856;2023-04-15T14:30:42;3.37;;;3.07;;
2712;SDS011;1366;47.988;7.856;2023-04-15T14:33:08;2.97;;;2.77;;
2712;SDS011;1366;47.988;7.856;2023-04-15T14:35:34;4.03;;;3.67;;
2712;SDS011;1366;47.988;7.856;2023-04-15T14:38:00;3.43;;;3.13;;
2712;SDS011;1366;47.988;7.856;2023-04-15T14:40:26;4.10;;;3.30;;
2712;SDS011;1366;47.988;7.856;2023-04-15T14:42:52;3.73;;;3.37;;
2712;SDS011;1366;47.988;7.856;2023-04-15T14:45:18;3.30;;;2.80;;
2712;SDS011;1366;47.988;7.856;2023-04-15T14:47:44;3.60;;;3.10;;
2712;SDS011;1366;47.988;7.856;2023-04-15T14:50:11;3.83;;;3.10;;
2712;SDS011;1366;47.988;7.856;2023-04-15T14:52:37;3.87;;;3.47;;
2712;SDS011;1366;47.988;7.856;2023-04-15T14:55:07;3.50;;;3.20;;
2712;SDS011;1366;47.988;7.856;2023-04-15T14:57:34;2.70;;;2.50;;
2712;SDS011;1366;47.988;7.856;2023-04-15T15:00:00;3.10;;;2.80;;
2712;SDS011;1366;47.988;7.856;2023-04-15T15:02:26;5.10;;;3.17;;
2712;SDS011;1366;47.988;7.856;2023-04-15T15:04:53;3.37;;;2.67;;
2712;SDS011;1366;47.988;7.856;2023-04-15T15:07:19;3.13;;;2.93;;
2712;SDS011;1366;47.988;7.856;2023-04-15T15:09:45;3.87;;;3.00;;
2712;SDS011;1366;47.988;7.856;2023-04-15T15:12:11;3.53;;;2.87;;
2712;SDS011;1366;47.988;7.856;2023-04-15T15:14:37;2.80;;;2.60;;
2712;SDS011;1366;47.988;7.856;2023-04-15T15:17:03;3.37;;;3.07;;
2712;SDS011;1366;47.988;7.856;2023-04-15T15:19:29;3.93;;;2.73;;
2712;SDS011;1366;47.988;7.856;2023-04-15T15:21:55;2.80;;;2.43;;
2712;SDS011;1366;47.988;7.856;2023-04-15T15:24:21;2.47;;;2.37;;
2712;SDS011;1366;47.988;7.856;2023-04-15T15:26:47;2.83;;;2.23;;
2712;SDS011;1366;47.988;7.856;2023-04-15T15:29:13;3.40;;;2.97;;
2712;SDS011;1366;47.988;7.856;2023-04-15T15:31:40;2.73;;;2.53;;
2712;SDS011;1366;47.988;7.856;2023-04-15T15:34:06;3.90;;;2.93;;
2712;SDS011;1366;47.988;7.856;2023-04-15T15:36:32;2.60;;;2.40;;
2712;SDS011;1366;47.988;7.856;2023-04-15T15:38:58;2.70;;;2.50;;
2712;SDS011;1366;47.988;7.856;2023-04-15T15:41:24;2.80;;;2.57;;
2712;SDS011;1366;47.988;7.856;2023-04-15T15:43:51;2.83;;;2.60;;
2712;SDS011;1366;47.988;7.856;2023-04-15T15:46:17;4.73;;;3.03;;
2712;SDS011;1366;47.988;7.856;2023-04-15T15:48:43;3.30;;;3.00;;
2712;SDS011;1366;47.988;7.856;2023-04-15T15:51:10;2.93;;;2.60;;
2712;SDS011;1366;47.988;7.856;2023-04-15T15:53:36;3.70;;;2.77;;
2712;SDS011;1366;47.988;7.856;2023-04-15T15:56:03;3.80;;;2.50;;
2712;SDS011;1366;47.988;7.856;2023-04-15T15:58:29;2.70;;;2.50;;
2712;SDS011;1366;47.988;7.856;2023-04-15T16:00:56;3.20;;;2.60;;
2712;SDS011;1366;47.988;7.856;2023-04-15T16:03:22;3.93;;;2.53;;
2712;SDS011;1366;47.988;7.856;2023-04-15T16:05:48;5.07;;;2.87;;
2712;SDS011;1366;47.988;7.856;2023-04-15T16:08:14;2.53;;;2.40;;
2712;SDS011;1366;47.988;7.856;2023-04-15T16:10:40;4.40;;;2.70;;
2712;SDS011;1366;47.988;7.856;2023-04-15T16:13:06;2.93;;;2.60;;
2712;SDS011;1366;47.988;7.856;2023-04-15T16:15:32;3.43;;;3.13;;
2712;SDS011;1366;47.988;7.856;2023-04-15T16:17:59;3.73;;;2.20;;
2712;SDS011;1366;47.988;7.856;2023-04-15T16:20:25;2.67;;;2.47;;
2712;SDS011;1366;47.988;7.856;2023-04-15T16:22:52;3.90;;;2.60;;
2712;SDS011;1366;47.988;7.856;2023-04-15T16:25:18;2.93;;;2.63;;
2712;SDS011;1366;47.988;7.856;2023-04-15T16:27:45;4.00;;;2.60;;
2712;SDS011;1366;47.988;7.856;2023-04-15T16:30:11;3.40;;;3.10;;
2712;SDS011;1366;47.988;7.856;2023-04-15T16:32:37;2.83;;;2.20;;
2712;SDS011;1366;47.988;7.856;2023-04-15T16:35:03;3.47;;;3.03;;
2712;SDS011;1366;47.988;7.856;2023-04-15T16:37:30;2.47;;;2.27;;
2712;SDS011;1366;47.988;7.856;2023-04-15T16:39:57;2.40;;;2.00;;
2712;SDS011;1366;47.988;7.856;2023-04-15T16:42:23;4.23;;;2.27;;
2712;SDS011;1366;47.988;7.856;2023-04-15T16:44:49;2.43;;;2.23;;
2712;SDS011;1366;47.988;7.856;2023-04-15T16:47:15;3.87;;;2.10;;
2712;SDS011;1366;47.988;7.856;2023-04-15T16:49:41;2.57;;;2.37;;
2712;SDS011;1366;47.988;7.856;2023-04-15T16:52:07;2.50;;;2.13;;
2712;SDS011;1366;47.988;7.856;2023-04-15T16:54:33;3.57;;;2.50;;
2712;SDS011;1366;47.988;7.856;2023-04-15T16:57:04;4.30;;;3.73;;
2712;SDS011;1366;47.988;7.856;2023-04-15T16:59:30;5.80;;;2.87;;
2712;SDS011;1366;47.988;7.856;2023-04-15T17:01:56;3.17;;;2.90;;
2712;SDS011;1366;47.988;7.856;2023-04-15T17:04:22;3.90;;;2.57;;
2712;SDS011;1366;47.988;7.856;2023-04-15T17:06:48;2.93;;;2.63;;
2712;SDS011;1366;47.988;7.856;2023-04-15T17:09:15;3.20;;;2.90;;
2712;SDS011;1366;47.988;7.856;2023-04-15T17:11:41;3.00;;;2.80;;
2712;SDS011;1366;47.988;7.856;2023-04-15T17:14:08;2.80;;;2.50;;
2712;SDS011;1366;47.988;7.856;2023-04-15T17:16:34;2.93;;;2.67;;
2712;SDS011;1366;47.988;7.856;2023-04-15T17:19:01;2.63;;;2.30;;
2712;SDS011;1366;47.988;7.856;2023-04-15T17:21:27;4.50;;;2.77;;
2712;SDS011;1366;47.988;7.856;2023-04-15T17:23:53;2.60;;;2.23;;
2712;SDS011;1366;47.988;7.856;2023-04-15T17:26:19;4.67;;;2.80;;
2712;SDS011;1366;47.988;7.856;2023-04-15T17:28:46;3.03;;;2.63;;
2712;SDS011;1366;47.988;7.856;2023-04-15T17:31:12;4.47;;;4.03;;
2712;SDS011;1366;47.988;7.856;2023-04-15T17:33:38;3.93;;;2.67;;
2712;SDS011;1366;47.988;7.856;2023-04-15T17:36:04;4.70;;;2.50;;
2712;SDS011;1366;47.988;7.856;2023-04-15T17:38:30;2.83;;;2.50;;
2712;SDS011;1366;47.988;7.856;2023-04-15T17:40:56;3.13;;;2.30;;
2712;SDS011;1366;47.988;7.856;2023-04-15T17:43:23;2.50;;;2.30;;
2712;SDS011;1366;47.988;7.856;2023-04-15T17:45:49;2.73;;;2.37;;
2712;SDS011;1366;47.988;7.856;2023-04-15T17:48:15;4.83;;;2.90;;
2712;SDS011;1366;47.988;7.856;2023-04-15T17:50:41;4.43;;;2.00;;
2712;SDS011;1366;47.988;7.856;2023-04-15T17:53:07;3.07;;;2.73;;
2712;SDS011;1366;47.988;7.856;2023-04-15T17:55:34;3.90;;;2.40;;
2712;SDS011;1366;47.988;7.856;2023-04-15T17:58:00;5.17;;;3.30;;
2712;SDS011;1366;47.988;7.856;2023-04-15T18:00:26;8.30;;;6.80;;
2712;SDS011;1366;47.988;7.856;2023-04-15T18:02:52;10.60;;;6.50;;
2712;SDS011;1366;47.988;7.856;2023-04-15T18:05:18;6.77;;;4.97;;
2712;SDS011;1366;47.988;7.856;2023-04-15T18:07:44;7.40;;;5.13;;
2712;SDS011;1366;47.988;7.856;2023-04-15T18:10:10;3.70;;;3.40;;
2712;SDS011;1366;47.988;7.856;2023-04-15T18:12:36;3.17;;;2.90;;
2712;SDS011;1366;47.988;7.856;2023-04-15T18:15:03;5.10;;;4.27;;
2712;SDS011;1366;47.988;7.856;2023-04-15T18:17:29;4.90;;;4.40;;
2712;SDS011;1366;47.988;7.856;2023-04-15T18:19:55;3.40;;;3.10;;
2712;SDS011;1366;47.988;7.856;2023-04-15T18:22:21;3.07;;;2.77;;
2712;SDS011;1366;47.988;7.856;2023-04-15T18:24:47;2.60;;;2.40;;
2712;SDS011;1366;47.988;7.856;2023-04-15T18:27:14;2.50;;;2.30;;
2712;SDS011;1366;47.988;7.856;2023-04-15T18:29:40;2.57;;;2.37;;
2712;SDS011;1366;47.988;7.856;2023-04-15T18:32:07;2.90;;;2.70;;
2712;SDS011;1366;47.988;7.856;2023-04-15T18:34:33;3.33;;;2.77;;
2712;SDS011;1366;47.988;7.856;2023-04-15T18:36:59;3.40;;;2.30;;
2712;SDS011;1366;47.988;7.856;2023-04-15T18:39:26;3.37;;;3.07;;
2712;SDS011;1366;47.988;7.856;2023-04-15T18:41:52;3.20;;;2.90;;
2712;SDS011;1366;47.988;7.856;2023-04-15T18:44:18;3.97;;;3.43;;
2712;SDS011;1366;47.988;7.856;2023-04-15T18:46:44;3.67;;;3.37;;
2712;SDS011;1366;47.988;7.856;2023-04-15T18:49:11;3.80;;;3.40;;
2712;SDS011;1366;47.988;7.856;2023-04-15T18:51:37;3.27;;;2.97;;
2712;SDS011;1366;47.988;7.856;2023-04-15T18:54:03;2.80;;;2.60;;
2712;SDS011;1366;47.988;7.856;2023-04-15T18:56:29;3.80;;;3.40;;
2712;SDS011;1366;47.988;7.856;2023-04-15T18:58:56;3.70;;;3.40;;
2712;SDS011;1366;47.988;7.856;2023-04-15T19:01:22;3.77;;;3.40;;
2712;SDS011;1366;47.988;7.856;2023-04-15T19:03:48;3.10;;;2.90;;
2712;SDS011;1366;47.988;7.856;2023-04-15T19:06:15;3.00;;;2.63;;
2712;SDS011;1366;47.988;7.856;2023-04-15T19:08:41;3.70;;;3.03;;
2712;SDS011;1366;47.988;7.856;2023-04-15T19:11:07;3.00;;;2.67;;
2712;SDS011;1366;47.988;7.856;2023-04-15T19:13:33;3.53;;;3.10;;
2712;SDS011;1366;47.988;7.856;2023-04-15T19:15:59;2.50;;;2.40;;
2712;SDS011;1366;47.988;7.856;2023-04-15T19:18:25;4.53;;;2.80;;
2712;SDS011;1366;47.988;7.856;2023-04-15T19:20:51;2.87;;;2.57;;
2712;SDS011;1366;47.988;7.856;2023-04-15T19:23:20;2.80;;;2.60;;
2712;SDS011;1366;47.988;7.856;2023-04-15T19:25:46;2.63;;;2.43;;
2712;SDS011;1366;47.988;7.856;2023-04-15T19:28:12;2.97;;;2.70;;